Time;durP1;ratioP1;P1;durP2;ratioP2;P2;SDS_P1;SDS_P2;PMS_P1;PMS_P2;Temp;Humidity;BMP_temperature;BMP_pressure;BME280_temperature;BME280_humidity;BME280_pressure;Samples;Min_cycle;Max_cycle;Signal;HPM_P1;HPM_P2
2022/09/12 00:00:00;;;;;;;0.9;0.9;;;;;;;16.0;100.0;101490;;;;
2022/09/12 00:01:02;;;;;;;0.9;0.9;;;;;;;16.0;100.0;101490;;;;
2022/09/12 00:02:00;;;;;;;0.9;0.9;;;;;;;15.8;100.0;101490;;;;
2022/09/12 00:03:00;;;;;;;0.9;0.9;;;;;;;15.8;100.0;101490;;;;
2022/09/12 00:04:00;;;;;;;0.9;0.9;;;;;;;15.9;100.0;101490;;;;
2022/09/12 00:05:00;;;;;;;0.9;0.9;;;;;;;15.9;100.0;101490;;;;
2022/09/12 00:06:00;;;;;;;0.9;0.9;;;;;;;15.9;100.0;101490;;;;
2022/09/12 00:07:00;;;;;;;0.9;0.9;;;;;;;15.9;100.0;101490;;;;
2022/09/12 00:08:00;;;;;;;0.9;0.9;;;;;;;15.9;100.0;101490;;;;
2022/09/12 00:09:01;;;;;;;0.9;0.9;;;;;;;15.9;100.0;101490;;;;
2022/09/12 00:10:00;;;;;;;0.9;0.9;;;;;;;15.9;100.0;101490;;;;
2022/09/12 00:11:03;;;;;;;0.4;0.4;;;;;;;15.9;100.0;101490;;;;
2022/09/12 00:12:00;;;;;;;0.4;0.4;;;;;;;15.9;100.0;101480;;;;
2022/09/12 00:13:00;;;;;;;0.4;0.4;;;;;;;15.9;100.0;101480;;;;
2022/09/12 00:14:00;;;;;;;0.4;0.4;;;;;;;15.9;100.0;101480;;;;
2022/09/12 00:15:00;;;;;;;0.4;0.4;;;;;;;15.9;100.0;101480;;;;
2022/09/12 00:16:00;;;;;;;0.4;0.4;;;;;;;15.8;100.0;101480;;;;
2022/09/12 00:17:00;;;;;;;0.4;0.4;;;;;;;15.8;100.0;101480;;;;
2022/09/12 00:18:00;;;;;;;0.4;0.4;;;;;;;15.8;100.0;101480;;;;
2022/09/12 00:19:00;;;;;;;0.4;0.4;;;;;;;15.8;100.0;101480;;;;
2022/09/12 00:20:00;;;;;;;0.4;0.4;;;;;;;15.8;100.0;101480;;;;
2022/09/12 00:21:01;;;;;;;0.4;0.4;;;;;;;15.8;100.0;101480;;;;
2022/09/12 00:22:01;;;;;;;0.4;0.4;;;;;;;15.7;100.0;101470;;;;
2022/09/12 00:23:00;;;;;;;0.4;0.4;;;;;;;15.7;100.0;101470;;;;
2022/09/12 00:24:00;;;;;;;0.4;0.4;;;;;;;15.7;100.0;101470;;;;
2022/09/12 00:25:00;;;;;;;0.4;0.4;;;;;;;15.7;100.0;101470;;;;
2022/09/12 00:26:03;;;;;;;0.4;0.4;;;;;;;15.7;100.0;101480;;;;
2022/09/12 00:27:00;;;;;;;0.4;0.4;;;;;;;15.7;100.0;101480;;;;
2022/09/12 00:28:00;;;;;;;0.4;0.4;;;;;;;15.7;100.0;101470;;;;
2022/09/12 00:29:00;;;;;;;0.4;0.4;;;;;;;15.7;100.0;101470;;;;
2022/09/12 00:30:00;;;;;;;0.4;0.4;;;;;;;15.7;100.0;101470;;;;
2022/09/12 00:31:02;;;;;;;1.0;1.0;;;;;;;15.7;100.0;101470;;;;
2022/09/12 00:32:00;;;;;;;1.0;1.0;;;;;;;15.7;100.0;101470;;;;
2022/09/12 00:33:00;;;;;;;1.0;1.0;;;;;;;15.7;100.0;101470;;;;
2022/09/12 00:34:00;;;;;;;1.0;1.0;;;;;;;15.6;100.0;101470;;;;
2022/09/12 00:35:01;;;;;;;1.0;1.0;;;;;;;15.6;100.0;101470;;;;
2022/09/12 00:36:03;;;;;;;1.0;1.0;;;;;;;15.6;100.0;101470;;;;
2022/09/12 00:37:00;;;;;;;1.0;1.0;;;;;;;15.6;100.0;101470;;;;
2022/09/12 00:38:00;;;;;;;1.0;1.0;;;;;;;15.5;100.0;101470;;;;
2022/09/12 00:39:00;;;;;;;1.0;1.0;;;;;;;15.5;100.0;101470;;;;
2022/09/12 00:40:00;;;;;;;1.0;1.0;;;;;;;15.4;100.0;101470;;;;
2022/09/12 00:41:00;;;;;;;1.0;1.0;;;;;;;15.4;100.0;101470;;;;
2022/09/12 00:42:00;;;;;;;1.0;1.0;;;;;;;15.5;100.0;101460;;;;
2022/09/12 00:43:00;;;;;;;1.0;1.0;;;;;;;15.5;100.0;101460;;;;
2022/09/12 00:44:10;;;;;;;1.0;1.0;;;;;;;15.5;100.0;101450;;;;
2022/09/12 00:45:00;;;;;;;1.0;1.0;;;;;;;15.5;100.0;101450;;;;
2022/09/12 00:46:03;;;;;;;1.0;1.0;;;;;;;15.4;100.0;101450;;;;
2022/09/12 00:47:04;;;;;;;1.0;1.0;;;;;;;15.4;100.0;101450;;;;
2022/09/12 00:48:02;;;;;;;1.0;1.0;;;;;;;15.3;100.0;101450;;;;
2022/09/12 00:49:10;;;;;;;1.0;1.0;;;;;;;15.3;100.0;101450;;;;
2022/09/12 00:50:04;;;;;;;1.0;1.0;;;;;;;15.3;100.0;101450;;;;
2022/09/12 00:51:00;;;;;;;2.3;1.0;;;;;;;15.3;100.0;101450;;;;
2022/09/12 00:52:05;;;;;;;2.3;1.0;;;;;;;15.4;100.0;101450;;;;
2022/09/12 00:53:03;;;;;;;2.3;1.0;;;;;;;15.4;100.0;101450;;;;
2022/09/12 00:54:02;;;;;;;2.3;1.0;;;;;;;15.4;100.0;101440;;;;
2022/09/12 00:55:00;;;;;;;2.3;1.0;;;;;;;15.4;100.0;101440;;;;
2022/09/12 00:56:00;;;;;;;2.3;1.0;;;;;;;15.3;100.0;101440;;;;
2022/09/12 00:57:03;;;;;;;2.3;1.0;;;;;;;15.3;100.0;101440;;;;
2022/09/12 00:58:02;;;;;;;2.3;1.0;;;;;;;15.3;100.0;101440;;;;
2022/09/12 00:59:03;;;;;;;2.3;1.0;;;;;;;15.3;100.0;101440;;;;
2022/09/12 01:00:11;;;;;;;2.3;1.0;;;;;;;15.3;100.0;101430;;;;
2022/09/12 01:01:00;;;;;;;2.3;1.0;;;;;;;15.3;100.0;101430;;;;
2022/09/12 01:02:00;;;;;;;2.3;1.0;;;;;;;15.3;100.0;101430;;;;
2022/09/12 01:03:03;;;;;;;2.3;1.0;;;;;;;15.3;100.0;101430;;;;
2022/09/12 01:04:00;;;;;;;2.3;1.0;;;;;;;15.4;100.0;101430;;;;
2022/09/12 01:05:00;;;;;;;2.3;1.0;;;;;;;15.4;100.0;101430;;;;
2022/09/12 01:06:10;;;;;;;2.3;1.0;;;;;;;15.3;100.0;101430;;;;
2022/09/12 01:07:00;;;;;;;2.3;1.0;;;;;;;15.3;100.0;101430;;;;
2022/09/12 01:08:01;;;;;;;2.3;1.0;;;;;;;15.3;100.0;101430;;;;
2022/09/12 01:09:03;;;;;;;2.3;1.0;;;;;;;15.3;100.0;101430;;;;
2022/09/12 01:10:00;;;;;;;2.3;1.0;;;;;;;15.3;100.0;101430;;;;
2022/09/12 01:11:00;;;;;;;0.6;0.6;;;;;;;15.3;100.0;101430;;;;
2022/09/12 01:12:00;;;;;;;0.6;0.6;;;;;;;15.3;100.0;101420;;;;
2022/09/12 01:13:00;;;;;;;0.6;0.6;;;;;;;15.3;100.0;101420;;;;
2022/09/12 01:14:00;;;;;;;0.6;0.6;;;;;;;15.2;100.0;101430;;;;
2022/09/12 01:15:00;;;;;;;0.6;0.6;;;;;;;15.2;100.0;101430;;;;
2022/09/12 01:16:02;;;;;;;0.6;0.6;;;;;;;15.2;100.0;101430;;;;
2022/09/12 01:17:00;;;;;;;0.6;0.6;;;;;;;15.2;100.0;101430;;;;
2022/09/12 01:18:08;;;;;;;0.6;0.6;;;;;;;15.2;100.0;101430;;;;
2022/09/12 01:19:11;;;;;;;0.6;0.6;;;;;;;15.2;100.0;101430;;;;
2022/09/12 01:20:01;;;;;;;0.6;0.6;;;;;;;15.2;100.0;101430;;;;
2022/09/12 01:21:00;;;;;;;0.6;0.6;;;;;;;15.2;100.0;101430;;;;
2022/09/12 01:22:10;;;;;;;0.6;0.6;;;;;;;15.2;100.0;101430;;;;
2022/09/12 01:23:10;;;;;;;0.6;0.6;;;;;;;15.2;100.0;101430;;;;
2022/09/12 01:24:00;;;;;;;0.6;0.6;;;;;;;15.2;100.0;101430;;;;
2022/09/12 01:25:00;;;;;;;0.6;0.6;;;;;;;15.2;100.0;101430;;;;
2022/09/12 01:26:00;;;;;;;0.6;0.6;;;;;;;15.2;100.0;101430;;;;
2022/09/12 01:27:10;;;;;;;0.6;0.6;;;;;;;15.2;100.0;101430;;;;
2022/09/12 01:28:10;;;;;;;0.6;0.6;;;;;;;15.1;100.0;101430;;;;
2022/09/12 01:29:10;;;;;;;0.6;0.6;;;;;;;15.1;100.0;101430;;;;
2022/09/12 01:30:00;;;;;;;0.6;0.6;;;;;;;15.1;100.0;101430;;;;
2022/09/12 01:31:04;;;;;;;0.7;0.7;;;;;;;15.1;100.0;101430;;;;
2022/09/12 01:32:07;;;;;;;0.7;0.7;;;;;;;15.2;100.0;101430;;;;
2022/09/12 01:33:01;;;;;;;0.7;0.7;;;;;;;15.2;100.0;101430;;;;
2022/09/12 01:34:07;;;;;;;0.7;0.7;;;;;;;15.1;100.0;101420;;;;
2022/09/12 01:35:03;;;;;;;0.7;0.7;;;;;;;15.1;100.0;101420;;;;
2022/09/12 01:36:10;;;;;;;0.7;0.7;;;;;;;15.0;100.0;101420;;;;
2022/09/12 01:37:01;;;;;;;0.7;0.7;;;;;;;15.0;100.0;101420;;;;
2022/09/12 01:38:10;;;;;;;0.7;0.7;;;;;;;15.0;100.0;101420;;;;
2022/09/12 01:39:02;;;;;;;0.7;0.7;;;;;;;15.0;100.0;101420;;;;
2022/09/12 01:40:07;;;;;;;0.7;0.7;;;;;;;15.0;100.0;101420;;;;
2022/09/12 01:41:08;;;;;;;0.7;0.7;;;;;;;15.0;100.0;101420;;;;
2022/09/12 01:42:10;;;;;;;0.7;0.7;;;;;;;15.1;100.0;101420;;;;
2022/09/12 01:43:10;;;;;;;0.7;0.7;;;;;;;15.1;100.0;101420;;;;
2022/09/12 01:44:09;;;;;;;0.7;0.7;;;;;;;15.0;100.0;101420;;;;
2022/09/12 01:45:10;;;;;;;0.7;0.7;;;;;;;15.0;100.0;101420;;;;
2022/09/12 01:46:01;;;;;;;0.7;0.7;;;;;;;14.9;100.0;101420;;;;
2022/09/12 01:47:10;;;;;;;0.7;0.7;;;;;;;14.9;100.0;101420;;;;
2022/09/12 01:48:04;;;;;;;0.7;0.7;;;;;;;15.0;100.0;101410;;;;
2022/09/12 01:49:10;;;;;;;0.7;0.7;;;;;;;15.0;100.0;101410;;;;
2022/09/12 01:50:10;;;;;;;0.7;0.7;;;;;;;14.9;100.0;101410;;;;
2022/09/12 01:51:00;;;;;;;0.6;0.6;;;;;;;14.9;100.0;101410;;;;
2022/09/12 01:52:10;;;;;;;0.6;0.6;;;;;;;14.9;100.0;101410;;;;
2022/09/12 01:53:03;;;;;;;0.6;0.6;;;;;;;14.9;100.0;101410;;;;
2022/09/12 01:54:05;;;;;;;0.6;0.6;;;;;;;14.9;100.0;101400;;;;
2022/09/12 01:55:10;;;;;;;0.6;0.6;;;;;;;14.9;100.0;101400;;;;
2022/09/12 01:56:06;;;;;;;0.6;0.6;;;;;;;14.9;100.0;101400;;;;
2022/09/12 01:57:02;;;;;;;0.6;0.6;;;;;;;14.9;100.0;101400;;;;
2022/09/12 01:58:06;;;;;;;0.6;0.6;;;;;;;14.8;100.0;101410;;;;
2022/09/12 01:59:03;;;;;;;0.6;0.6;;;;;;;14.8;100.0;101410;;;;
2022/09/12 02:00:03;;;;;;;0.6;0.6;;;;;;;14.7;100.0;101400;;;;
2022/09/12 02:01:00;;;;;;;0.6;0.6;;;;;;;14.7;100.0;101400;;;;
2022/09/12 02:02:06;;;;;;;0.6;0.6;;;;;;;14.8;100.0;101400;;;;
2022/09/12 02:03:03;;;;;;;0.6;0.6;;;;;;;14.8;100.0;101400;;;;
2022/09/12 02:04:00;;;;;;;0.6;0.6;;;;;;;14.8;100.0;101400;;;;
2022/09/12 02:05:05;;;;;;;0.6;0.6;;;;;;;14.8;100.0;101400;;;;
2022/09/12 02:06:03;;;;;;;0.6;0.6;;;;;;;14.8;100.0;101390;;;;
2022/09/12 02:07:05;;;;;;;0.6;0.6;;;;;;;14.8;100.0;101390;;;;
2022/09/12 02:08:09;;;;;;;0.6;0.6;;;;;;;14.8;100.0;101390;;;;
2022/09/12 02:09:04;;;;;;;0.6;0.6;;;;;;;14.8;100.0;101390;;;;
2022/09/12 02:10:04;;;;;;;0.6;0.6;;;;;;;14.8;100.0;101390;;;;
2022/09/12 02:11:06;;;;;;;0.5;0.5;;;;;;;14.8;100.0;101390;;;;
2022/09/12 02:12:00;;;;;;;0.5;0.5;;;;;;;14.8;100.0;101380;;;;
2022/09/12 02:13:02;;;;;;;0.5;0.5;;;;;;;14.8;100.0;101380;;;;
2022/09/12 02:14:05;;;;;;;0.5;0.5;;;;;;;14.8;100.0;101380;;;;
2022/09/12 02:15:02;;;;;;;0.5;0.5;;;;;;;14.8;100.0;101380;;;;
2022/09/12 02:16:05;;;;;;;0.5;0.5;;;;;;;14.7;100.0;101380;;;;
2022/09/12 02:17:06;;;;;;;0.5;0.5;;;;;;;14.7;100.0;101380;;;;
2022/09/12 02:18:02;;;;;;;0.5;0.5;;;;;;;14.7;100.0;101380;;;;
2022/09/12 02:19:06;;;;;;;0.5;0.5;;;;;;;14.7;100.0;101380;;;;
2022/09/12 02:20:02;;;;;;;0.5;0.5;;;;;;;14.7;100.0;101380;;;;
2022/09/12 02:21:00;;;;;;;0.5;0.5;;;;;;;14.7;100.0;101380;;;;
2022/09/12 02:22:01;;;;;;;0.5;0.5;;;;;;;14.8;100.0;101380;;;;
2022/09/12 02:23:02;;;;;;;0.5;0.5;;;;;;;14.8;100.0;101380;;;;
2022/09/12 02:24:01;;;;;;;0.5;0.5;;;;;;;14.8;100.0;101380;;;;
2022/09/12 02:25:01;;;;;;;0.5;0.5;;;;;;;14.8;100.0;101380;;;;
2022/09/12 02:26:03;;;;;;;0.5;0.5;;;;;;;14.8;100.0;101380;;;;
2022/09/12 02:27:08;;;;;;;0.5;0.5;;;;;;;14.8;100.0;101380;;;;
2022/09/12 02:28:03;;;;;;;0.5;0.5;;;;;;;14.7;100.0;101370;;;;
2022/09/12 02:29:00;;;;;;;0.5;0.5;;;;;;;14.7;100.0;101370;;;;
2022/09/12 02:30:00;;;;;;;0.5;0.5;;;;;;;14.6;100.0;101370;;;;
2022/09/12 02:31:06;;;;;;;0.7;0.7;;;;;;;14.6;100.0;101370;;;;
2022/09/12 02:32:04;;;;;;;0.7;0.7;;;;;;;14.6;100.0;101370;;;;
2022/09/12 02:33:05;;;;;;;0.7;0.7;;;;;;;14.6;100.0;101370;;;;
2022/09/12 02:34:08;;;;;;;0.7;0.7;;;;;;;14.6;100.0;101370;;;;
2022/09/12 02:35:06;;;;;;;0.7;0.7;;;;;;;14.6;100.0;101370;;;;
2022/09/12 02:36:12;;;;;;;0.7;0.7;;;;;;;14.7;100.0;101370;;;;
2022/09/12 02:37:01;;;;;;;0.7;0.7;;;;;;;14.7;100.0;101370;;;;
2022/09/12 02:38:05;;;;;;;0.7;0.7;;;;;;;14.7;100.0;101370;;;;
2022/09/12 02:39:00;;;;;;;0.7;0.7;;;;;;;14.7;100.0;101370;;;;
2022/09/12 02:40:00;;;;;;;0.7;0.7;;;;;;;14.6;100.0;101370;;;;
2022/09/12 02:41:00;;;;;;;0.7;0.7;;;;;;;14.6;100.0;101370;;;;
2022/09/12 02:42:01;;;;;;;0.7;0.7;;;;;;;14.5;100.0;101370;;;;
2022/09/12 02:43:01;;;;;;;0.7;0.7;;;;;;;14.5;100.0;101370;;;;
2022/09/12 02:44:00;;;;;;;0.7;0.7;;;;;;;14.6;100.0;101380;;;;
2022/09/12 02:45:00;;;;;;;0.7;0.7;;;;;;;14.6;100.0;101380;;;;
2022/09/12 02:46:00;;;;;;;0.7;0.7;;;;;;;14.6;100.0;101380;;;;
2022/09/12 02:47:03;;;;;;;0.7;0.7;;;;;;;14.6;100.0;101380;;;;
2022/09/12 02:48:12;;;;;;;0.7;0.7;;;;;;;14.6;100.0;101380;;;;
2022/09/12 02:49:00;;;;;;;0.7;0.7;;;;;;;14.6;100.0;101380;;;;
2022/09/12 02:50:00;;;;;;;0.7;0.7;;;;;;;14.5;100.0;101380;;;;
2022/09/12 02:51:00;;;;;;;2.9;1.8;;;;;;;14.5;100.0;101380;;;;
2022/09/12 02:52:01;;;;;;;2.9;1.8;;;;;;;14.6;100.0;101380;;;;
2022/09/12 02:53:03;;;;;;;2.9;1.8;;;;;;;14.6;100.0;101380;;;;
2022/09/12 02:54:01;;;;;;;2.9;1.8;;;;;;;14.5;100.0;101380;;;;
2022/09/12 02:55:00;;;;;;;2.9;1.8;;;;;;;14.5;100.0;101380;;;;
2022/09/12 02:56:00;;;;;;;2.9;1.8;;;;;;;14.4;100.0;101380;;;;
2022/09/12 02:57:00;;;;;;;2.9;1.8;;;;;;;14.4;100.0;101380;;;;
2022/09/12 02:58:01;;;;;;;2.9;1.8;;;;;;;14.5;100.0;101380;;;;
2022/09/12 02:59:05;;;;;;;2.9;1.8;;;;;;;14.5;100.0;101380;;;;
2022/09/12 03:00:00;;;;;;;2.9;1.8;;;;;;;14.5;100.0;101380;;;;
2022/09/12 03:01:10;;;;;;;2.9;1.8;;;;;;;14.5;100.0;101380;;;;
2022/09/12 03:02:01;;;;;;;2.9;1.8;;;;;;;14.6;100.0;101370;;;;
2022/09/12 03:03:10;;;;;;;2.9;1.8;;;;;;;14.6;100.0;101370;;;;
2022/09/12 03:04:10;;;;;;;2.9;1.8;;;;;;;14.5;100.0;101370;;;;
2022/09/12 03:05:10;;;;;;;2.9;1.8;;;;;;;14.5;100.0;101370;;;;
2022/09/12 03:06:01;;;;;;;2.9;1.8;;;;;;;14.5;100.0;101370;;;;
2022/09/12 03:07:10;;;;;;;2.9;1.8;;;;;;;14.5;100.0;101370;;;;
2022/09/12 03:08:01;;;;;;;2.9;1.8;;;;;;;14.5;100.0;101370;;;;
2022/09/12 03:09:00;;;;;;;2.9;1.8;;;;;;;14.5;100.0;101370;;;;
2022/09/12 03:10:10;;;;;;;1.0;1.0;;;;;;;14.5;100.0;101370;;;;
2022/09/12 03:11:10;;;;;;;1.0;1.0;;;;;;;14.5;100.0;101370;;;;
2022/09/12 03:12:01;;;;;;;1.0;1.0;;;;;;;14.4;100.0;101360;;;;
2022/09/12 03:13:10;;;;;;;1.0;1.0;;;;;;;14.4;100.0;101360;;;;
2022/09/12 03:14:10;;;;;;;1.0;1.0;;;;;;;14.4;100.0;101360;;;;
2022/09/12 03:15:10;;;;;;;1.0;1.0;;;;;;;14.4;100.0;101360;;;;
2022/09/12 03:16:10;;;;;;;1.0;1.0;;;;;;;14.3;100.0;101360;;;;
2022/09/12 03:17:03;;;;;;;1.0;1.0;;;;;;;14.3;100.0;101360;;;;
2022/09/12 03:18:10;;;;;;;1.0;1.0;;;;;;;14.3;100.0;101360;;;;
2022/09/12 03:19:00;;;;;;;1.0;1.0;;;;;;;14.3;100.0;101360;;;;
2022/09/12 03:20:10;;;;;;;1.0;1.0;;;;;;;14.3;100.0;101360;;;;
2022/09/12 03:21:00;;;;;;;1.0;1.0;;;;;;;14.3;100.0;101360;;;;
2022/09/12 03:22:10;;;;;;;1.0;1.0;;;;;;;14.2;100.0;101360;;;;
2022/09/12 03:23:03;;;;;;;1.0;1.0;;;;;;;14.2;100.0;101360;;;;
2022/09/12 03:24:07;;;;;;;1.0;1.0;;;;;;;14.3;100.0;101350;;;;
2022/09/12 03:25:10;;;;;;;1.0;1.0;;;;;;;14.3;100.0;101350;;;;
2022/09/12 03:26:05;;;;;;;1.0;1.0;;;;;;;14.3;100.0;101350;;;;
2022/09/12 03:27:03;;;;;;;1.0;1.0;;;;;;;14.3;100.0;101350;;;;
2022/09/12 03:28:06;;;;;;;1.0;1.0;;;;;;;14.2;100.0;101360;;;;
2022/09/12 03:29:01;;;;;;;1.0;1.0;;;;;;;14.2;100.0;101360;;;;
2022/09/12 03:30:00;;;;;;;0.7;0.7;;;;;;;14.2;100.0;101360;;;;
2022/09/12 03:31:10;;;;;;;0.7;0.7;;;;;;;14.2;100.0;101360;;;;
2022/09/12 03:32:00;;;;;;;0.7;0.7;;;;;;;14.2;100.0;101350;;;;
2022/09/12 03:33:00;;;;;;;0.7;0.7;;;;;;;14.2;100.0;101350;;;;
2022/09/12 03:34:00;;;;;;;0.7;0.7;;;;;;;14.3;100.0;101350;;;;
2022/09/12 03:35:00;;;;;;;0.7;0.7;;;;;;;14.3;100.0;101350;;;;
2022/09/12 03:36:00;;;;;;;0.7;0.7;;;;;;;14.2;100.0;101350;;;;
2022/09/12 03:37:00;;;;;;;0.7;0.7;;;;;;;14.2;100.0;101350;;;;
2022/09/12 03:38:00;;;;;;;0.7;0.7;;;;;;;14.2;100.0;101350;;;;
2022/09/12 03:39:00;;;;;;;0.7;0.7;;;;;;;14.2;100.0;101350;;;;
2022/09/12 03:40:00;;;;;;;0.7;0.7;;;;;;;14.3;100.0;101340;;;;
2022/09/12 03:41:00;;;;;;;0.7;0.7;;;;;;;14.3;100.0;101340;;;;
2022/09/12 03:42:00;;;;;;;0.7;0.7;;;;;;;14.2;100.0;101340;;;;
2022/09/12 03:43:00;;;;;;;0.7;0.7;;;;;;;14.2;100.0;101340;;;;
2022/09/12 03:44:00;;;;;;;0.7;0.7;;;;;;;14.2;100.0;101340;;;;
2022/09/12 03:45:00;;;;;;;0.7;0.7;;;;;;;14.2;100.0;101340;;;;
2022/09/12 03:46:00;;;;;;;0.7;0.7;;;;;;;14.2;100.0;101340;;;;
2022/09/12 03:47:00;;;;;;;0.7;0.7;;;;;;;14.2;100.0;101340;;;;
2022/09/12 03:48:00;;;;;;;0.7;0.7;;;;;;;14.2;100.0;101340;;;;
2022/09/12 03:49:00;;;;;;;0.7;0.7;;;;;;;14.2;100.0;101340;;;;
2022/09/12 03:50:00;;;;;;;0.8;0.8;;;;;;;14.2;100.0;101340;;;;
2022/09/12 03:51:01;;;;;;;0.8;0.8;;;;;;;14.2;100.0;101340;;;;
2022/09/12 03:52:00;;;;;;;0.8;0.8;;;;;;;14.2;100.0;101340;;;;
2022/09/12 03:53:01;;;;;;;0.8;0.8;;;;;;;14.2;100.0;101340;;;;
2022/09/12 03:54:00;;;;;;;0.8;0.8;;;;;;;14.3;100.0;101340;;;;
2022/09/12 03:55:00;;;;;;;0.8;0.8;;;;;;;14.3;100.0;101340;;;;
2022/09/12 03:56:04;;;;;;;0.8;0.8;;;;;;;14.2;100.0;101340;;;;
2022/09/12 03:57:00;;;;;;;0.8;0.8;;;;;;;14.2;100.0;101340;;;;
2022/09/12 03:58:00;;;;;;;0.8;0.8;;;;;;;14.2;100.0;101340;;;;
2022/09/12 03:59:00;;;;;;;0.8;0.8;;;;;;;14.2;100.0;101340;;;;
2022/09/12 04:00:00;;;;;;;0.8;0.8;;;;;;;14.3;100.0;101340;;;;
2022/09/12 04:01:00;;;;;;;0.8;0.8;;;;;;;14.3;100.0;101340;;;;
2022/09/12 04:02:00;;;;;;;0.8;0.8;;;;;;;14.2;100.0;101330;;;;
2022/09/12 04:03:00;;;;;;;0.8;0.8;;;;;;;14.2;100.0;101330;;;;
2022/09/12 04:04:00;;;;;;;0.8;0.8;;;;;;;14.2;100.0;101340;;;;
2022/09/12 04:05:00;;;;;;;0.8;0.8;;;;;;;14.2;100.0;101340;;;;
2022/09/12 04:06:00;;;;;;;0.8;0.8;;;;;;;14.3;100.0;101340;;;;
2022/09/12 04:07:00;;;;;;;0.8;0.8;;;;;;;14.3;100.0;101340;;;;
2022/09/12 04:08:00;;;;;;;0.8;0.8;;;;;;;14.2;100.0;101330;;;;
2022/09/12 04:09:00;;;;;;;0.8;0.8;;;;;;;14.2;100.0;101330;;;;
2022/09/12 04:10:00;;;;;;;0.7;0.7;;;;;;;14.1;100.0;101330;;;;
2022/09/12 04:11:02;;;;;;;0.7;0.7;;;;;;;14.1;100.0;101330;;;;
2022/09/12 04:12:00;;;;;;;0.7;0.7;;;;;;;14.2;100.0;101330;;;;
2022/09/12 04:13:00;;;;;;;0.7;0.7;;;;;;;14.2;100.0;101330;;;;
2022/09/12 04:14:00;;;;;;;0.7;0.7;;;;;;;14.2;100.0;101330;;;;
2022/09/12 04:15:00;;;;;;;0.7;0.7;;;;;;;14.2;100.0;101330;;;;
2022/09/12 04:16:00;;;;;;;0.7;0.7;;;;;;;14.3;100.0;101320;;;;
2022/09/12 04:17:00;;;;;;;0.7;0.7;;;;;;;14.3;100.0;101320;;;;
2022/09/12 04:18:05;;;;;;;0.7;0.7;;;;;;;14.3;100.0;101320;;;;
2022/09/12 04:19:00;;;;;;;0.7;0.7;;;;;;;14.3;100.0;101320;;;;
2022/09/12 04:20:00;;;;;;;0.7;0.7;;;;;;;14.2;100.0;101320;;;;
2022/09/12 04:21:09;;;;;;;0.7;0.7;;;;;;;14.2;100.0;101320;;;;
2022/09/12 04:22:00;;;;;;;0.7;0.7;;;;;;;14.2;100.0;101320;;;;
2022/09/12 04:23:00;;;;;;;0.7;0.7;;;;;;;14.2;100.0;101320;;;;
2022/09/12 04:24:00;;;;;;;0.7;0.7;;;;;;;14.1;100.0;101320;;;;
2022/09/12 04:25:00;;;;;;;0.7;0.7;;;;;;;14.1;100.0;101320;;;;
2022/09/12 04:26:00;;;;;;;0.7;0.7;;;;;;;14.2;100.0;101320;;;;
2022/09/12 04:27:02;;;;;;;0.7;0.7;;;;;;;14.2;100.0;101320;;;;
2022/09/12 04:28:00;;;;;;;0.7;0.7;;;;;;;14.2;100.0;101320;;;;
2022/09/12 04:29:00;;;;;;;0.7;0.7;;;;;;;14.2;100.0;101320;;;;
2022/09/12 04:30:01;;;;;;;0.5;0.5;;;;;;;14.2;100.0;101320;;;;
2022/09/12 04:31:02;;;;;;;0.5;0.5;;;;;;;14.2;100.0;101320;;;;
2022/09/12 04:32:00;;;;;;;0.5;0.5;;;;;;;14.2;100.0;101320;;;;
2022/09/12 04:33:00;;;;;;;0.5;0.5;;;;;;;14.2;100.0;101320;;;;
2022/09/12 04:34:00;;;;;;;0.5;0.5;;;;;;;14.3;100.0;101320;;;;
2022/09/12 04:35:00;;;;;;;0.5;0.5;;;;;;;14.3;100.0;101320;;;;
2022/09/12 04:36:02;;;;;;;0.5;0.5;;;;;;;14.3;100.0;101320;;;;
2022/09/12 04:37:00;;;;;;;0.5;0.5;;;;;;;14.3;100.0;101320;;;;
2022/09/12 04:38:00;;;;;;;0.5;0.5;;;;;;;14.2;100.0;101310;;;;
2022/09/12 04:39:00;;;;;;;0.5;0.5;;;;;;;14.2;100.0;101310;;;;
2022/09/12 04:40:00;;;;;;;0.5;0.5;;;;;;;14.2;100.0;101310;;;;
2022/09/12 04:41:00;;;;;;;0.5;0.5;;;;;;;14.2;100.0;101310;;;;
2022/09/12 04:42:00;;;;;;;0.5;0.5;;;;;;;14.2;100.0;101310;;;;
2022/09/12 04:43:00;;;;;;;0.5;0.5;;;;;;;14.2;100.0;101310;;;;
2022/09/12 04:44:01;;;;;;;0.5;0.5;;;;;;;14.2;100.0;101310;;;;
2022/09/12 04:45:00;;;;;;;0.5;0.5;;;;;;;14.2;100.0;101310;;;;
2022/09/12 04:46:08;;;;;;;0.5;0.5;;;;;;;14.2;100.0;101310;;;;
2022/09/12 04:47:00;;;;;;;0.5;0.5;;;;;;;14.2;100.0;101310;;;;
2022/09/12 04:48:00;;;;;;;0.5;0.5;;;;;;;14.2;100.0;101310;;;;
2022/09/12 04:49:00;;;;;;;0.5;0.5;;;;;;;14.2;100.0;101310;;;;
2022/09/12 04:50:00;;;;;;;1.0;1.0;;;;;;;14.2;100.0;101310;;;;
2022/09/12 04:51:08;;;;;;;1.0;1.0;;;;;;;14.2;100.0;101310;;;;
2022/09/12 04:52:00;;;;;;;1.0;1.0;;;;;;;14.2;100.0;101310;;;;
2022/09/12 04:53:00;;;;;;;1.0;1.0;;;;;;;14.2;100.0;101310;;;;
2022/09/12 04:54:02;;;;;;;1.0;1.0;;;;;;;14.2;100.0;101310;;;;
2022/09/12 04:57:00;;;;;;;1.0;1.0;;;;;;;14.2;100.0;101310;;;;
2022/09/12 04:58:01;;;;;;;1.0;1.0;;;;;;;14.1;100.0;101310;;;;
2022/09/12 04:59:00;;;;;;;1.0;1.0;;;;;;;14.1;100.0;101310;;;;
2022/09/12 05:00:07;;;;;;;1.0;1.0;;;;;;;14.2;100.0;101300;;;;
2022/09/12 05:01:08;;;;;;;1.0;1.0;;;;;;;14.2;100.0;101300;;;;
2022/09/12 05:02:01;;;;;;;1.0;1.0;;;;;;;14.4;100.0;101310;;;;
2022/09/12 05:03:00;;;;;;;1.0;1.0;;;;;;;14.4;100.0;101310;;;;
2022/09/12 05:04:01;;;;;;;1.0;1.0;;;;;;;14.2;100.0;101310;;;;
2022/09/12 05:05:00;;;;;;;1.0;1.0;;;;;;;14.2;100.0;101310;;;;
2022/09/12 05:06:02;;;;;;;1.0;1.0;;;;;;;14.3;100.0;101310;;;;
2022/09/12 05:07:00;;;;;;;1.0;1.0;;;;;;;14.3;100.0;101310;;;;
2022/09/12 05:08:00;;;;;;;1.0;1.0;;;;;;;14.3;100.0;101310;;;;
2022/09/12 05:09:00;;;;;;;1.0;1.0;;;;;;;14.3;100.0;101310;;;;
2022/09/12 05:10:00;;;;;;;2.4;0.9;;;;;;;14.4;100.0;101310;;;;
2022/09/12 05:11:03;;;;;;;2.4;0.9;;;;;;;14.4;100.0;101310;;;;
2022/09/12 05:12:06;;;;;;;2.4;0.9;;;;;;;14.3;100.0;101300;;;;
2022/09/12 05:13:00;;;;;;;2.4;0.9;;;;;;;14.3;100.0;101300;;;;
2022/09/12 05:15:00;;;;;;;2.4;0.9;;;;;;;14.5;100.0;101310;;;;
2022/09/12 05:16:01;;;;;;;2.4;0.9;;;;;;;14.4;100.0;101310;;;;
2022/09/12 05:17:00;;;;;;;2.4;0.9;;;;;;;14.4;100.0;101310;;;;
2022/09/12 05:18:00;;;;;;;2.4;0.9;;;;;;;14.3;100.0;101310;;;;
2022/09/12 05:19:00;;;;;;;2.4;0.9;;;;;;;14.3;100.0;101310;;;;
2022/09/12 05:20:00;;;;;;;2.4;0.9;;;;;;;14.5;100.0;101310;;;;
2022/09/12 05:21:01;;;;;;;2.4;0.9;;;;;;;14.5;100.0;101310;;;;
2022/09/12 05:22:00;;;;;;;2.4;0.9;;;;;;;14.5;100.0;101320;;;;
2022/09/12 05:23:00;;;;;;;2.4;0.9;;;;;;;14.5;100.0;101320;;;;
2022/09/12 05:24:00;;;;;;;2.4;0.9;;;;;;;14.6;100.0;101320;;;;
2022/09/12 05:25:00;;;;;;;2.4;0.9;;;;;;;14.6;100.0;101320;;;;
2022/09/12 05:26:01;;;;;;;2.4;0.9;;;;;;;14.5;100.0;101320;;;;
2022/09/12 05:27:02;;;;;;;2.4;0.9;;;;;;;14.5;100.0;101320;;;;
2022/09/12 05:28:00;;;;;;;2.4;0.9;;;;;;;14.5;100.0;101310;;;;
2022/09/12 05:29:00;;;;;;;2.4;0.9;;;;;;;14.5;100.0;101310;;;;
2022/09/12 05:30:00;;;;;;;1.0;0.8;;;;;;;14.5;100.0;101320;;;;
2022/09/12 05:31:02;;;;;;;1.0;0.8;;;;;;;14.5;100.0;101320;;;;
2022/09/12 05:32:00;;;;;;;1.0;0.8;;;;;;;14.6;100.0;101310;;;;
2022/09/12 05:33:00;;;;;;;1.0;0.8;;;;;;;14.6;100.0;101310;;;;
2022/09/12 05:34:00;;;;;;;1.0;0.8;;;;;;;14.3;100.0;101310;;;;
2022/09/12 05:35:00;;;;;;;1.0;0.8;;;;;;;14.3;100.0;101310;;;;
2022/09/12 05:36:00;;;;;;;1.0;0.8;;;;;;;14.4;100.0;101310;;;;
2022/09/12 05:37:00;;;;;;;1.0;0.8;;;;;;;14.4;100.0;101310;;;;
2022/09/12 05:38:00;;;;;;;1.0;0.8;;;;;;;14.4;100.0;101310;;;;
2022/09/12 05:39:00;;;;;;;1.0;0.8;;;;;;;14.4;100.0;101310;;;;
2022/09/12 05:40:03;;;;;;;1.0;0.8;;;;;;;14.4;100.0;101310;;;;
2022/09/12 05:41:02;;;;;;;1.0;0.8;;;;;;;14.4;100.0;101310;;;;
2022/09/12 05:42:00;;;;;;;1.0;0.8;;;;;;;14.4;100.0;101310;;;;
2022/09/12 05:43:00;;;;;;;1.0;0.8;;;;;;;14.4;100.0;101310;;;;
2022/09/12 05:44:01;;;;;;;1.0;0.8;;;;;;;14.4;100.0;101310;;;;
2022/09/12 05:45:00;;;;;;;1.0;0.8;;;;;;;14.4;100.0;101310;;;;
2022/09/12 05:46:04;;;;;;;1.0;0.8;;;;;;;14.6;100.0;101310;;;;
2022/09/12 05:47:00;;;;;;;1.0;0.8;;;;;;;14.6;100.0;101310;;;;
2022/09/12 05:48:01;;;;;;;1.0;0.8;;;;;;;14.6;100.0;101310;;;;
2022/09/12 05:49:02;;;;;;;1.0;0.8;;;;;;;14.6;100.0;101310;;;;
2022/09/12 05:50:00;;;;;;;1.4;1.3;;;;;;;14.6;100.0;101320;;;;
2022/09/12 05:51:01;;;;;;;1.4;1.3;;;;;;;14.6;100.0;101320;;;;
2022/09/12 05:52:00;;;;;;;1.4;1.3;;;;;;;14.6;100.0;101310;;;;
2022/09/12 05:53:00;;;;;;;1.4;1.3;;;;;;;14.6;100.0;101310;;;;
2022/09/12 05:54:02;;;;;;;1.4;1.3;;;;;;;14.7;100.0;101310;;;;
2022/09/12 05:55:00;;;;;;;1.4;1.3;;;;;;;14.7;100.0;101310;;;;
2022/09/12 05:56:02;;;;;;;1.4;1.3;;;;;;;14.6;100.0;101310;;;;
2022/09/12 05:57:00;;;;;;;1.4;1.3;;;;;;;14.6;100.0;101310;;;;
2022/09/12 05:58:00;;;;;;;1.4;1.3;;;;;;;14.6;100.0;101310;;;;
2022/09/12 05:59:01;;;;;;;1.4;1.3;;;;;;;14.6;100.0;101310;;;;
2022/09/12 06:00:00;;;;;;;1.4;1.3;;;;;;;14.7;100.0;101310;;;;
2022/09/12 06:01:01;;;;;;;1.4;1.3;;;;;;;14.7;100.0;101310;;;;
2022/09/12 06:02:00;;;;;;;1.4;1.3;;;;;;;14.8;100.0;101320;;;;
2022/09/12 06:03:00;;;;;;;1.4;1.3;;;;;;;14.8;100.0;101320;;;;
2022/09/12 06:04:02;;;;;;;1.4;1.3;;;;;;;14.7;100.0;101320;;;;
2022/09/12 06:05:00;;;;;;;1.4;1.3;;;;;;;14.7;100.0;101320;;;;
2022/09/12 06:06:01;;;;;;;1.4;1.3;;;;;;;14.8;100.0;101320;;;;
2022/09/12 06:07:00;;;;;;;1.4;1.3;;;;;;;14.8;100.0;101320;;;;
2022/09/12 06:08:00;;;;;;;1.4;1.3;;;;;;;14.8;100.0;101320;;;;
2022/09/12 06:09:01;;;;;;;1.4;1.3;;;;;;;14.8;100.0;101320;;;;
2022/09/12 06:10:00;;;;;;;0.7;0.7;;;;;;;14.8;100.0;101330;;;;
2022/09/12 06:11:02;;;;;;;0.7;0.7;;;;;;;14.8;100.0;101330;;;;
2022/09/12 06:12:00;;;;;;;0.7;0.7;;;;;;;14.9;100.0;101330;;;;
2022/09/12 06:13:00;;;;;;;0.7;0.7;;;;;;;14.9;100.0;101330;;;;
2022/09/12 06:14:00;;;;;;;0.7;0.7;;;;;;;14.8;100.0;101330;;;;
2022/09/12 06:15:00;;;;;;;0.7;0.7;;;;;;;14.8;100.0;101330;;;;
2022/09/12 06:16:02;;;;;;;0.7;0.7;;;;;;;14.8;100.0;101330;;;;
2022/09/12 06:17:00;;;;;;;0.7;0.7;;;;;;;14.8;100.0;101330;;;;
2022/09/12 06:18:00;;;;;;;0.7;0.7;;;;;;;14.8;100.0;101330;;;;
2022/09/12 06:19:01;;;;;;;0.7;0.7;;;;;;;14.8;100.0;101330;;;;
2022/09/12 06:20:00;;;;;;;0.7;0.7;;;;;;;14.7;100.0;101340;;;;
2022/09/12 06:21:02;;;;;;;0.7;0.7;;;;;;;14.7;100.0;101340;;;;
2022/09/12 06:22:00;;;;;;;0.7;0.7;;;;;;;14.7;100.0;101340;;;;
2022/09/12 06:23:00;;;;;;;0.7;0.7;;;;;;;14.7;100.0;101340;;;;
2022/09/12 06:24:00;;;;;;;0.7;0.7;;;;;;;14.8;100.0;101330;;;;
2022/09/12 06:25:00;;;;;;;0.7;0.7;;;;;;;14.8;100.0;101330;;;;